Auburn, New York
Current Conditions -  °F | °C
As of 3:54 AM on Friday 24 Oct 2014 (Local Time) from KSYR Reporting Station
Overcast Overcast  
Wind Chill: 45°   Ceiling: 7000
Heat Index: 49°   Visibility: 10mi
Dew Point: 43°   Wind: 8mph
Humidity: 80%   Direction: 290°WNW
Pressure: 29.94"   Gusts: NA
Location:  42.93°N, 76.56°W
Report Text: KSYR 240754Z 29007KT 10SM FEW044 BKN070 OVC090 09/06 A2994 RMK AO2 SLP136 T00940061
Loading
Personal Weather Stations






























Interactive Weather Map
Tropical Storm Tracking
New forecast layout! Learn more

10-Day Weather Forecast

Advertisements
Track Severe Weather on mobile